Time;durP1;ratioP1;P1;durP2;ratioP2;P2;SDS_P1;SDS_P2;PMS_P1;PMS_P2;Temp;Humidity;BMP_temperature;BMP_pressure;BME280_temperature;BME280_humidity;BME280_pressure;Samples;Min_cycle;Max_cycle;Signal;HPM_P1;HPM_P2
2021/09/27 00:00:57;;;;;;;64.28;46.38;;;;;;;14.12;100.00;99430.94;2049220;28;20257;-80
2021/09/27 00:01:58;;;;;;;69.85;47.30;;;;;;;14.10;100.00;99435.84;2057658;28;20193;-80
2021/09/27 00:03:01;;;;;;;73.40;48.33;;;;;;;14.04;100.00;99439.75;2057820;28;20200;-80
2021/09/27 00:04:03;;;;;;;68.55;46.13;;;;;;;14.01;100.00;99436.91;2049078;29;20260;-80
2021/09/27 00:05:06;;;;;;;66.18;44.50;;;;;;;14.08;100.00;99435.38;2041305;29;20198;-80
2021/09/27 00:06:09;;;;;;;66.03;45.50;;;;;;;14.07;100.00;99433.78;2049688;28;20195;-79
2021/09/27 00:07:10;;;;;;;69.13;48.47;;;;;;;14.09;100.00;99430.78;2057941;28;20194;-79
2021/09/27 00:08:12;;;;;;;63.70;46.47;;;;;;;14.16;100.00;99436.50;2057758;28;20240;-80
2021/09/27 00:09:14;;;;;;;70.32;47.92;;;;;;;14.26;100.00;99440.81;2048778;29;20301;-79
2021/09/27 00:10:17;;;;;;;68.57;47.47;;;;;;;14.16;100.00;99425.78;2049611;28;20195;-80
2021/09/27 00:11:22;;;;;;;68.32;47.95;;;;;;;14.07;100.00;99428.41;2057833;28;20276;-79
2021/09/27 00:12:23;;;;;;;69.53;48.13;;;;;;;14.11;100.00;99425.91;2057707;28;20197;-80
2021/09/27 00:13:28;;;;;;;71.32;46.60;;;;;;;14.23;100.00;99430.66;2048706;29;20293;-80
2021/09/27 00:14:29;;;;;;;65.18;46.72;;;;;;;14.14;100.00;99422.59;2049594;28;20198;-79
2021/09/27 00:15:33;;;;;;;65.03;45.40;;;;;;;14.11;100.00;99431.25;2049110;29;20221;-80
2021/09/27 00:16:35;;;;;;;69.55;45.78;;;;;;;14.07;100.00;99424.91;2049618;28;20669;-80
2021/09/27 00:17:37;;;;;;;68.55;45.38;;;;;;;14.08;100.00;99424.63;2049090;29;20274;-80
2021/09/27 00:18:41;;;;;;;71.88;46.85;;;;;;;14.04;100.00;99429.03;2049208;29;20213;-79
2021/09/27 00:19:46;;;;;;;69.25;46.95;;;;;;;14.09;100.00;99426.22;2049454;28;20197;-80
2021/09/27 00:20:51;;;;;;;71.93;45.35;;;;;;;14.13;100.00;99426.38;2049105;29;20202;-80
2021/09/27 00:21:53;;;;;;;67.47;44.55;;;;;;;14.19;100.00;99435.09;2049854;28;20186;-80
2021/09/27 00:22:56;;;;;;;67.90;44.65;;;;;;;14.14;100.00;99428.75;2057726;28;20273;-80
2021/09/27 00:23:58;;;;;;;71.18;46.53;;;;;;;14.13;100.00;99427.16;2057895;28;20194;-79
2021/09/27 00:24:59;;;;;;;65.50;45.63;;;;;;;14.10;100.00;99427.00;2057793;28;20244;-80
2021/09/27 00:26:01;;;;;;;64.80;45.67;;;;;;;14.13;100.00;99421.00;2048818;29;20295;-80
2021/09/27 00:27:03;;;;;;;69.47;45.38;;;;;;;14.06;100.00;99410.72;2049049;29;20293;-79
2021/09/27 00:28:05;;;;;;;66.00;45.05;;;;;;;14.07;100.00;99423.06;2049109;29;20201;-80
2021/09/27 00:29:05;;;;;;;75.32;46.00;;;;;;;14.08;100.00;99421.94;2049279;28;20194;-79
2021/09/27 00:30:09;;;;;;;66.50;45.10;;;;;;;14.26;100.00;99420.13;2057776;28;20288;-80
2021/09/27 00:31:10;;;;;;;68.97;45.20;;;;;;;14.17;100.00;99421.19;2049000;29;20201;-80
2021/09/27 00:32:12;;;;;;;70.00;46.72;;;;;;;14.14;100.00;99414.53;2049197;28;20249;-79
2021/09/27 00:33:13;;;;;;;68.53;45.05;;;;;;;14.23;100.00;99420.72;2057789;28;20190;-80
2021/09/27 00:34:16;;;;;;;73.87;44.63;;;;;;;14.13;100.00;99415.63;2049025;29;20203;-80
2021/09/27 00:35:20;;;;;;;67.45;44.30;;;;;;;14.09;100.00;99412.00;2041318;29;20227;-80
2021/09/27 00:36:22;;;;;;;67.20;43.58;;;;;;;14.06;100.00;99412.59;2049477;28;20195;-79
2021/09/27 00:37:23;;;;;;;64.75;43.08;;;;;;;14.12;100.00;99417.53;2057678;28;20200;-79
2021/09/27 00:38:25;;;;;;;68.90;44.67;;;;;;;14.10;100.00;99413.59;2057763;28;20237;-80
2021/09/27 00:39:26;;;;;;;62.55;42.83;;;;;;;14.11;100.00;99407.13;2057617;28;20201;-80
2021/09/27 00:40:31;;;;;;;63.43;43.10;;;;;;;14.11;100.00;99413.28;2057831;28;20644;-79
2021/09/27 00:41:34;;;;;;;62.72;43.30;;;;;;;14.09;100.00;99410.13;2057766;28;20546;-80
2021/09/27 00:42:35;;;;;;;66.55;42.78;;;;;;;14.01;100.00;99408.19;2048971;29;20205;-80
2021/09/27 00:43:39;;;;;;;64.23;43.43;;;;;;;13.99;100.00;99413.06;2049082;29;20203;-80
2021/09/27 00:44:40;;;;;;;61.10;41.72;;;;;;;13.94;100.00;99418.56;2049423;28;20205;-80
2021/09/27 00:45:44;;;;;;;64.57;42.83;;;;;;;13.90;100.00;99422.97;2057894;28;20221;-80
2021/09/27 00:46:46;;;;;;;60.90;43.42;;;;;;;13.92;100.00;99426.13;2057461;28;20204;-80
2021/09/27 00:47:47;;;;;;;61.33;43.35;;;;;;;13.95;100.00;99428.19;2057551;28;20240;-79
2021/09/27 00:48:49;;;;;;;64.40;44.15;;;;;;;14.06;100.00;99426.03;2049001;29;20198;-80
2021/09/27 00:49:51;;;;;;;68.80;44.75;;;;;;;13.97;100.00;99428.66;2041436;29;20195;-80
2021/09/27 00:50:56;;;;;;;68.65;44.95;;;;;;;13.99;100.00;99426.50;2048970;29;20289;-79
2021/09/27 00:51:57;;;;;;;64.65;43.47;;;;;;;14.21;100.00;99427.50;2048959;29;20242;-80
2021/09/27 00:52:59;;;;;;;66.13;42.70;;;;;;;14.15;100.00;99422.28;2049035;28;20673;-79
2021/09/27 00:54:02;;;;;;;64.32;43.85;;;;;;;14.04;100.00;99423.66;2048864;29;20202;-80
2021/09/27 00:55:05;;;;;;;68.05;42.90;;;;;;;13.99;100.00;99421.13;2041384;29;20670;-79
2021/09/27 00:56:11;;;;;;;60.17;42.70;;;;;;;13.97;100.00;99423.31;2049516;28;20226;-79
2021/09/27 00:57:17;;;;;;;67.35;42.70;;;;;;;13.95;100.00;99419.34;2057684;28;20264;-80
2021/09/27 00:58:20;;;;;;;66.40;43.92;;;;;;;14.03;100.00;99416.72;2057748;28;20205;-79
2021/09/27 00:59:22;;;;;;;68.50;42.35;;;;;;;14.01;100.00;99421.59;2048928;29;20219;-79
2021/09/27 01:00:26;;;;;;;64.03;41.97;;;;;;;13.96;100.00;99416.34;2041228;29;20284;-80
2021/09/27 01:01:28;;;;;;;65.20;42.58;;;;;;;13.92;100.00;99417.31;2048786;29;20214;-79
2021/09/27 01:02:29;;;;;;;68.32;44.33;;;;;;;13.85;100.00;99418.53;2040819;29;20318;-80
2021/09/27 01:03:32;;;;;;;68.95;44.15;;;;;;;13.87;100.00;99423.56;2041064;29;20203;-79
2021/09/27 01:04:34;;;;;;;68.05;44.17;;;;;;;13.92;100.00;99422.66;2041338;29;20223;-80
2021/09/27 01:05:39;;;;;;;69.13;43.88;;;;;;;13.90;100.00;99428.34;2048934;28;20194;-80
2021/09/27 01:06:48;;;;;;;68.05;44.00;;;;;;;13.92;100.00;99422.66;2050557;28;20289;-79
2021/09/27 01:07:55;;;;;;;77.72;44.50;;;;;;;13.96;100.00;99424.41;2050339;29;20239;-79
2021/09/27 01:09:04;;;;;;;69.63;43.83;;;;;;;13.97;100.00;99427.88;2051335;28;20182;-79
2021/09/27 01:10:26;;;;;;;75.05;45.63;;;;;;;13.96;100.00;99423.63;2050385;29;20186;-79
2021/09/27 01:11:57;;;;;;;79.68;45.65;;;;;;;13.94;100.00;99423.94;2053252;28;20617;-80
2021/09/27 01:13:20;;;;;;;72.97;46.15;;;;;;;13.90;100.00;99414.94;2050319;29;20201;-80
2021/09/27 01:14:43;;;;;;;78.90;46.13;;;;;;;13.91;100.00;99421.88;2050312;29;20194;-80
2021/09/27 01:15:49;;;;;;;71.90;44.25;;;;;;;13.98;100.00;99416.84;2045236;29;20194;-79
2021/09/27 01:16:57;;;;;;;72.10;45.35;;;;;;;13.96;100.00;99419.03;2050297;29;20657;-80
2021/09/27 01:18:13;;;;;;;79.88;48.20;;;;;;;13.92;100.00;99420.00;2043322;29;20195;-79
2021/09/27 01:19:45;;;;;;;80.05;45.13;;;;;;;13.89;100.00;99421.38;2050295;29;20293;-79
2021/09/27 01:21:04;;;;;;;79.10;45.90;;;;;;;13.90;100.00;99417.63;2054701;28;20167;-79
2021/09/27 01:22:10;;;;;;;78.78;46.17;;;;;;;13.88;100.00;99416.31;2050071;29;20329;-79
2021/09/27 01:23:30;;;;;;;75.60;46.22;;;;;;;13.92;100.00;99415.41;2051207;28;20628;-80
2021/09/27 01:25:06;;;;;;;75.13;44.72;;;;;;;13.86;100.00;99414.75;2059107;28;20625;-79
2021/09/27 01:26:34;;;;;;;82.63;46.40;;;;;;;13.82;100.00;99410.31;2059113;28;20181;-80
2021/09/27 01:27:49;;;;;;;73.65;44.90;;;;;;;13.81;100.00;99406.84;2050183;29;20190;-79
2021/09/27 01:29:29;;;;;;;79.00;45.22;;;;;;;13.94;100.00;99407.06;2052360;28;20183;-80
2021/09/27 01:30:50;;;;;;;72.47;43.78;;;;;;;13.93;100.00;99406.25;2023047;29;20205;-80
2021/09/27 01:32:09;;;;;;;69.47;42.63;;;;;;;13.89;100.00;99413.31;2053246;28;20577;-79
2021/09/27 01:33:15;;;;;;;73.07;44.15;;;;;;;13.90;100.00;99409.56;2058831;28;20208;-80
2021/09/27 01:34:20;;;;;;;65.85;42.53;;;;;;;13.91;100.00;99416.50;2050190;29;20194;-80
2021/09/27 01:35:28;;;;;;;74.97;44.08;;;;;;;13.92;100.00;99417.31;2043199;29;20198;-80
2021/09/27 01:36:34;;;;;;;63.75;41.55;;;;;;;14.05;100.00;99401.09;2051176;28;20182;-80
2021/09/27 01:37:41;;;;;;;62.17;42.10;;;;;;;14.01;100.00;99410.88;2059059;28;20621;-79
2021/09/27 01:38:47;;;;;;;66.13;42.03;;;;;;;13.96;100.00;99411.00;2058799;28;20178;-80
2021/09/27 01:39:58;;;;;;;65.57;41.72;;;;;;;13.97;100.00;99417.94;2050134;29;20724;-80
2021/09/27 01:41:15;;;;;;;63.17;42.10;;;;;;;14.04;100.00;99412.13;2051717;28;20657;-80
2021/09/27 01:42:20;;;;;;;62.22;40.28;;;;;;;14.00;100.00;99411.97;2058856;28;20217;-80
2021/09/27 01:43:26;;;;;;;60.58;42.05;;;;;;;13.97;100.00;99407.22;2058957;28;20194;-79
2021/09/27 01:44:31;;;;;;;64.93;42.85;;;;;;;13.91;100.00;99408.47;2050194;29;20191;-80
2021/09/27 01:45:38;;;;;;;62.08;41.13;;;;;;;13.92;100.00;99403.88;2050106;29;20182;-80
2021/09/27 01:46:45;;;;;;;67.28;43.72;;;;;;;13.93;100.00;99405.47;2050960;28;20233;-79
2021/09/27 01:47:52;;;;;;;62.78;42.55;;;;;;;13.86;100.00;99405.91;2058919;28;20181;-79
2021/09/27 01:48:59;;;;;;;69.18;42.05;;;;;;;13.81;100.00;99403.34;2058806;28;20182;-80
2021/09/27 01:50:04;;;;;;;67.18;42.67;;;;;;;13.84;100.00;99405.44;2049678;29;20198;-79
2021/09/27 01:51:11;;;;;;;68.25;42.88;;;;;;;13.86;100.00;99406.69;2050062;29;20306;-79
2021/09/27 01:52:18;;;;;;;72.05;43.13;;;;;;;13.83;100.00;99407.31;2051248;28;20253;-79
2021/09/27 01:53:22;;;;;;;61.22;41.08;;;;;;;13.77;100.00;99400.50;2050033;29;20194;-79
2021/09/27 01:54:30;;;;;;;69.30;43.00;;;;;;;13.75;100.00;99401.91;2049947;29;20695;-79
2021/09/27 01:55:34;;;;;;;69.38;42.92;;;;;;;13.77;100.00;99397.81;2050844;28;20174;-79
2021/09/27 01:56:41;;;;;;;65.63;41.85;;;;;;;13.80;100.00;99401.78;2058590;28;20715;-79
2021/09/27 01:57:45;;;;;;;71.95;43.30;;;;;;;13.80;100.00;99391.03;2049655;29;20206;-79
2021/09/27 01:58:55;;;;;;;71.82;43.22;;;;;;;13.85;100.00;99385.56;2049212;28;20281;-79
2021/09/27 02:00:03;;;;;;;72.45;46.10;;;;;;;14.03;100.00;99384.50;2051675;28;20634;-80
2021/09/27 02:01:10;;;;;;;73.97;45.28;;;;;;;13.99;100.00;99372.84;2058639;28;20244;-79
2021/09/27 02:02:21;;;;;;;78.95;44.90;;;;;;;13.95;100.00;99377.22;2049924;29;20218;-80
2021/09/27 02:03:29;;;;;;;71.15;43.78;;;;;;;13.93;100.00;99384.81;2051582;28;20185;-79
2021/09/27 02:04:33;;;;;;;74.55;44.63;;;;;;;13.82;100.00;99378.13;2058733;28;20213;-80
2021/09/27 02:05:40;;;;;;;79.22;43.97;;;;;;;13.76;100.00;99382.03;2058506;28;20237;-81
2021/09/27 02:06:46;;;;;;;74.20;44.78;;;;;;;13.75;100.00;99380.47;2050290;28;20225;-79
2021/09/27 02:07:51;;;;;;;76.47;43.53;;;;;;;13.69;100.00;99389.72;2050626;28;20210;-80
2021/09/27 02:08:56;;;;;;;71.28;43.15;;;;;;;13.63;100.00;99386.38;2058651;28;20178;-79
2021/09/27 02:10:01;;;;;;;72.75;45.22;;;;;;;13.62;100.00;99392.84;2058462;28;20229;-79
2021/09/27 02:11:06;;;;;;;75.13;43.80;;;;;;;13.58;100.00;99384.63;2058681;28;20185;-80
2021/09/27 02:12:11;;;;;;;71.75;43.88;;;;;;;13.58;100.00;99384.63;2058572;28;20637;-80
2021/09/27 02:13:16;;;;;;;81.40;44.75;;;;;;;13.61;100.00;99387.78;2049774;29;20621;-80
2021/09/27 02:14:24;;;;;;;77.03;47.38;;;;;;;13.60;100.00;99388.91;2050699;28;20178;-79
2021/09/27 02:15:31;;;;;;;71.47;43.33;;;;;;;13.55;100.00;99387.13;2058614;28;20174;-80
2021/09/27 02:16:36;;;;;;;78.55;45.17;;;;;;;13.63;100.00;99393.63;2058477;28;20201;-80
2021/09/27 02:17:40;;;;;;;73.45;43.13;;;;;;;13.63;100.00;99401.69;2048775;28;20210;-80
2021/09/27 02:18:50;;;;;;;69.55;43.55;;;;;;;13.61;100.00;99393.16;2049420;29;20206;-80
2021/09/27 02:19:56;;;;;;;72.05;45.30;;;;;;;13.59;100.00;99396.16;2050980;28;20179;-79
2021/09/27 02:21:06;;;;;;;73.38;45.22;;;;;;;13.63;100.00;99397.09;2049785;29;20201;-80
2021/09/27 02:22:11;;;;;;;75.80;45.33;;;;;;;13.60;100.00;99396.94;2042878;29;20331;-79
2021/09/27 02:23:19;;;;;;;73.22;42.42;;;;;;;13.66;100.00;99393.03;2050334;28;20245;-79
2021/09/27 02:24:26;;;;;;;74.45;42.85;;;;;;;13.63;100.00;99385.59;2057941;28;20174;-80
2021/09/27 02:25:32;;;;;;;67.30;42.05;;;;;;;13.60;100.00;99384.31;2058461;28;20539;-80
2021/09/27 02:26:33;;;;;;;67.47;42.00;;;;;;;13.58;100.00;99389.22;2049853;29;20229;-81
2021/09/27 02:27:35;;;;;;;63.58;42.13;;;;;;;13.62;100.00;99389.38;2041860;29;20244;-79
2021/09/27 02:28:38;;;;;;;72.03;43.47;;;;;;;13.55;100.00;99395.16;2049998;28;20285;-80
2021/09/27 02:29:39;;;;;;;70.45;42.65;;;;;;;13.55;100.00;99397.84;2049680;29;20206;-80
2021/09/27 02:30:45;;;;;;;68.80;42.60;;;;;;;13.58;100.00;99394.56;2041761;29;20203;-80
2021/09/27 02:31:49;;;;;;;67.00;41.80;;;;;;;13.64;100.00;99397.91;2050626;28;20201;-80
2021/09/27 02:32:58;;;;;;;66.40;42.65;;;;;;;13.58;100.00;99398.03;2049641;29;20194;-79
2021/09/27 02:34:05;;;;;;;69.53;41.42;;;;;;;13.53;100.00;99390.13;2049829;29;20199;-80
2021/09/27 02:35:10;;;;;;;64.95;41.38;;;;;;;13.48;100.00;99395.63;2050644;28;20186;-80
2021/09/27 02:36:13;;;;;;;61.40;40.88;;;;;;;13.47;100.00;99387.91;2058465;28;20178;-79
2021/09/27 02:37:21;;;;;;;69.00;41.95;;;;;;;13.53;100.00;99384.75;2049289;29;20206;-80
2021/09/27 02:38:25;;;;;;;64.15;40.53;;;;;;;13.56;100.00;99386.06;2049720;29;20664;-79
2021/09/27 02:39:29;;;;;;;60.65;40.47;;;;;;;13.57;100.00;99390.31;2050185;28;20222;-80
2021/09/27 02:40:34;;;;;;;65.03;40.53;;;;;;;13.52;100.00;99385.84;2058368;28;20202;-79
2021/09/27 02:41:40;;;;;;;66.18;42.92;;;;;;;13.51;100.00;99389.63;2058402;28;20562;-79
2021/09/27 02:42:46;;;;;;;66.82;40.72;;;;;;;13.52;100.00;99388.53;2058268;28;20277;-80
2021/09/27 02:43:48;;;;;;;63.92;41.17;;;;;;;13.54;100.00;99389.00;2049311;29;20236;-79
2021/09/27 02:44:49;;;;;;;66.28;41.42;;;;;;;13.50;100.00;99396.09;2041767;29;20601;-80
2021/09/27 02:45:51;;;;;;;63.58;41.85;;;;;;;13.49;100.00;99394.53;2049760;28;20186;-79
2021/09/27 02:46:54;;;;;;;67.55;42.28;;;;;;;13.49;100.00;99391.84;2058278;28;20668;-80
2021/09/27 02:48:09;;;;;;;70.15;42.63;;;;;;;13.48;100.00;99389.47;2049790;29;20206;-80
2021/09/27 02:49:14;;;;;;;64.70;42.67;;;;;;;13.47;100.00;99387.91;2049572;29;20214;-79
2021/09/27 02:50:23;;;;;;;70.03;42.28;;;;;;;13.47;100.00;99388.69;2049665;29;20198;-80
2021/09/27 02:51:24;;;;;;;71.10;42.55;;;;;;;13.46;100.00;99388.97;2042631;29;20654;-80
2021/09/27 02:52:27;;;;;;;64.72;40.70;;;;;;;13.45;100.00;99385.50;2049724;28;20182;-80
2021/09/27 02:53:28;;;;;;;69.38;42.72;;;;;;;13.43;100.00;99387.69;2049545;29;20206;-79
2021/09/27 02:54:33;;;;;;;65.63;41.80;;;;;;;13.45;100.00;99387.38;2049539;29;20689;-79
2021/09/27 02:55:44;;;;;;;64.82;42.90;;;;;;;13.46;100.00;99386.28;2050224;28;20630;-80
2021/09/27 02:57:00;;;;;;;69.93;42.53;;;;;;;13.44;100.00;99394.63;2049561;29;20189;-80
2021/09/27 02:58:12;;;;;;;65.25;42.15;;;;;;;13.47;100.00;99388.69;2051724;28;20250;-80
2021/09/27 02:59:18;;;;;;;69.38;44.22;;;;;;;13.57;100.00;99393.00;2058275;28;20625;-80
2021/09/27 03:00:23;;;;;;;76.75;46.33;;;;;;;13.57;100.00;99385.75;2049480;29;20194;-80
2021/09/27 03:01:38;;;;;;;74.18;46.38;;;;;;;13.53;100.00;99381.28;2049128;29;20206;-79
2021/09/27 03:02:47;;;;;;;77.03;45.72;;;;;;;13.50;100.00;99387.28;2051468;28;20284;-79
2021/09/27 03:03:58;;;;;;;76.82;47.40;;;;;;;13.69;100.00;99387.06;2058377;28;20262;-79
2021/09/27 03:05:09;;;;;;;74.60;45.75;;;;;;;13.67;100.00;99386.56;2058238;28;20244;-79
2021/09/27 03:06:18;;;;;;;72.90;46.83;;;;;;;13.58;100.00;99386.53;2049456;29;20214;-80
2021/09/27 03:07:31;;;;;;;79.93;46.38;;;;;;;13.56;100.00;99383.38;2049432;29;20207;-79
2021/09/27 03:08:54;;;;;;;78.55;46.33;;;;;;;13.58;100.00;99383.84;2051493;28;20261;-80
2021/09/27 03:10:04;;;;;;;70.43;46.33;;;;;;;13.60;100.00;99386.22;2049395;29;20210;-79
2021/09/27 03:11:24;;;;;;;79.50;48.25;;;;;;;13.56;100.00;99386.84;2049132;29;20249;-80
2021/09/27 03:12:34;;;;;;;73.28;46.42;;;;;;;13.57;100.00;99383.06;2052527;28;20209;-80
2021/09/27 03:13:41;;;;;;;79.40;46.92;;;;;;;13.60;100.00;99386.22;2058174;28;20182;-80
2021/09/27 03:15:07;;;;;;;78.32;47.00;;;;;;;13.67;100.00;99391.94;2058077;28;20166;-80
2021/09/27 03:16:19;;;;;;;68.05;45.55;;;;;;;13.75;100.00;99388.50;2058265;28;20174;-80
2021/09/27 03:17:26;;;;;;;76.85;45.95;;;;;;;13.63;100.00;99393.63;2049415;29;20560;-79
2021/09/27 03:18:40;;;;;;;74.65;46.45;;;;;;;13.56;100.00;99391.41;2050543;28;20194;-80
2021/09/27 03:19:54;;;;;;;68.00;44.38;;;;;;;13.65;100.00;99386.09;2058208;28;20194;-79
2021/09/27 03:21:09;;;;;;;74.88;46.70;;;;;;;13.59;100.00;99388.09;2058151;28;20620;-79
2021/09/27 03:22:17;;;;;;;77.57;46.80;;;;;;;13.55;100.00;99385.25;2049331;29;20261;-80
2021/09/27 03:23:24;;;;;;;81.30;47.80;;;;;;;13.47;100.00;99387.91;2049503;29;20187;-79
2021/09/27 03:24:42;;;;;;;83.43;47.75;;;;;;;13.47;100.00;99394.03;2050543;28;20185;-80
2021/09/27 03:25:52;;;;;;;78.07;45.97;;;;;;;13.50;100.00;99388.06;2049356;29;20194;-79
2021/09/27 03:27:02;;;;;;;75.82;45.67;;;;;;;13.48;100.00;99390.25;2049690;29;20194;-80
2021/09/27 03:28:08;;;;;;;76.28;46.08;;;;;;;13.56;100.00;99384.16;2050445;28;20567;-79
2021/09/27 03:29:15;;;;;;;73.72;45.85;;;;;;;13.66;100.00;99382.31;2049102;28;20709;-79
2021/09/27 03:30:23;;;;;;;77.65;47.60;;;;;;;13.60;100.00;99387.00;2050362;28;20242;-79
2021/09/27 03:31:30;;;;;;;81.60;46.97;;;;;;;13.51;100.00;99378.13;2049024;29;20198;-80
2021/09/27 03:32:42;;;;;;;85.25;48.88;;;;;;;13.46;100.00;99376.34;2050310;28;20175;-79
2021/09/27 03:33:53;;;;;;;86.03;47.58;;;;;;;13.44;100.00;99378.56;2057616;28;20291;-79
2021/09/27 03:35:02;;;;;;;84.00;48.20;;;;;;;13.44;100.00;99381.25;2058150;28;20181;-80
2021/09/27 03:36:18;;;;;;;86.55;49.58;;;;;;;13.38;100.00;99385.16;2058005;28;20263;-79
2021/09/27 03:37:34;;;;;;;88.95;50.28;;;;;;;13.35;100.00;99375.03;2049378;29;20194;-80
2021/09/27 03:38:39;;;;;;;90.47;48.88;;;;;;;13.36;100.00;99376.63;2051602;28;20237;-79
2021/09/27 03:39:50;;;;;;;85.40;50.55;;;;;;;13.33;100.00;99377.25;2049166;29;20202;-79
2021/09/27 03:41:03;;;;;;;92.75;50.88;;;;;;;13.31;100.00;99374.06;2050963;28;20567;-79
2021/09/27 03:42:07;;;;;;;90.15;49.10;;;;;;;13.31;100.00;99376.75;2049278;29;20198;-80
2021/09/27 03:43:15;;;;;;;92.45;49.97;;;;;;;13.29;100.00;99377.06;2049943;28;20197;-80
2021/09/27 03:44:22;;;;;;;91.75;51.90;;;;;;;13.31;100.00;99376.75;2057977;28;20620;-80
2021/09/27 03:45:30;;;;;;;95.13;51.03;;;;;;;13.30;100.00;99375.19;2058013;28;20261;-81
2021/09/27 03:46:37;;;;;;;98.82;51.47;;;;;;;13.27;100.00;99373.88;2048915;29;20217;-80
2021/09/27 03:47:43;;;;;;;93.72;50.00;;;;;;;13.28;100.00;99380.03;2049271;29;20190;-80
2021/09/27 03:48:49;;;;;;;83.18;48.50;;;;;;;13.29;100.00;99379.75;2042043;29;20195;-80
2021/09/27 03:49:55;;;;;;;87.55;48.63;;;;;;;13.32;100.00;99378.34;2050237;28;20648;-79
2021/09/27 03:50:59;;;;;;;87.15;47.00;;;;;;;13.33;100.00;99376.44;2049238;29;20253;-79
2021/09/27 03:52:06;;;;;;;84.95;46.92;;;;;;;13.37;100.00;99369.38;2049219;29;20285;-80
2021/09/27 03:53:10;;;;;;;86.57;48.67;;;;;;;13.33;100.00;99371.88;2041908;29;20539;-80
2021/09/27 03:54:16;;;;;;;83.25;47.08;;;;;;;13.31;100.00;99366.03;2041705;29;20248;-79
2021/09/27 03:55:21;;;;;;;77.38;44.60;;;;;;;13.34;100.00;99361.94;2050336;28;20666;-79
2021/09/27 03:56:26;;;;;;;85.70;44.63;;;;;;;13.37;100.00;99362.13;2057789;28;20269;-80
2021/09/27 03:57:32;;;;;;;72.13;43.65;;;;;;;13.33;100.00;99363.03;2057864;28;20197;-79
2021/09/27 03:58:37;;;;;;;73.97;44.05;;;;;;;13.29;100.00;99365.53;2057836;28;20672;-80
2021/09/27 03:59:40;;;;;;;75.55;42.70;;;;;;;13.33;100.00;99361.16;2049132;29;20209;-80
2021/09/27 04:00:48;;;;;;;69.20;44.30;;;;;;;13.37;100.00;99367.47;2041249;29;20203;-79
2021/09/27 04:01:55;;;;;;;74.05;42.47;;;;;;;13.32;100.00;99364.94;2049180;29;20194;-79
2021/09/27 04:03:01;;;;;;;74.60;44.17;;;;;;;13.34;100.00;99361.94;2041835;29;20230;-79
2021/09/27 04:04:14;;;;;;;77.60;45.50;;;;;;;13.33;100.00;99360.38;2049297;29;20186;-80
2021/09/27 04:05:20;;;;;;;74.63;43.30;;;;;;;13.36;100.00;99362.44;2051205;28;20183;-79
2021/09/27 04:06:34;;;;;;;73.20;43.85;;;;;;;13.31;100.00;99355.31;2049102;29;20198;-80
2021/09/27 04:07:52;;;;;;;83.47;44.28;;;;;;;13.27;100.00;99362.38;2049161;29;20191;-79
2021/09/27 04:09:00;;;;;;;76.57;43.80;;;;;;;13.26;100.00;99361.59;2051772;28;20197;-79
2021/09/27 04:10:17;;;;;;;79.70;44.90;;;;;;;13.27;100.00;99357.81;2057982;28;20587;-79
2021/09/27 04:11:23;;;;;;;75.82;44.85;;;;;;;13.26;100.00;99350.06;2049187;29;20198;-79
2021/09/27 04:12:36;;;;;;;74.85;43.38;;;;;;;13.26;100.00;99355.44;2050115;28;20661;-79
2021/09/27 04:13:42;;;;;;;74.72;43.53;;;;;;;13.26;100.00;99352.75;2049160;29;20559;-80
2021/09/27 04:14:53;;;;;;;78.60;43.90;;;;;;;13.29;100.00;99354.81;2050206;28;20185;-79
2021/09/27 04:16:01;;;;;;;72.70;41.72;;;;;;;13.30;100.00;99359.09;2058028;28;20162;-79
2021/09/27 04:17:06;;;;;;;74.70;43.17;;;;;;;13.29;100.00;99354.81;2049151;29;20273;-79
2021/09/27 04:18:11;;;;;;;75.63;42.85;;;;;;;13.31;100.00;99360.69;2049006;29;20213;-80
2021/09/27 04:19:20;;;;;;;76.55;44.72;;;;;;;13.28;100.00;99363.94;2050055;28;20271;-79
2021/09/27 04:20:25;;;;;;;77.75;43.17;;;;;;;13.26;100.00;99360.78;2057886;28;20174;-79
2021/09/27 04:21:34;;;;;;;70.50;43.17;;;;;;;13.27;100.00;99373.88;2049002;29;20194;-79
2021/09/27 04:22:40;;;;;;;71.78;43.38;;;;;;;13.28;100.00;99369.31;2050422;28;20185;-79
2021/09/27 04:23:56;;;;;;;73.22;45.13;;;;;;;13.25;100.00;99370.72;2048818;29;20213;-80
2021/09/27 04:25:06;;;;;;;73.60;43.25;;;;;;;13.28;100.00;99369.31;2049304;29;20204;-80
2021/09/27 04:26:13;;;;;;;76.03;42.63;;;;;;;13.26;100.00;99364.25;2050560;28;20604;-79
2021/09/27 04:27:29;;;;;;;71.97;43.45;;;;;;;13.22;100.00;99357.94;2049109;29;20721;-79
2021/09/27 04:28:53;;;;;;;75.47;43.80;;;;;;;13.25;100.00;99359.22;2049035;29;20640;-79
2021/09/27 04:30:30;;;;;;;73.00;42.70;;;;;;;13.23;100.00;99366.78;2052716;28;20169;-79
2021/09/27 04:31:41;;;;;;;76.10;42.92;;;;;;;13.21;100.00;99363.63;2049045;29;20202;-79
2021/09/27 04:32:55;;;;;;;70.93;41.90;;;;;;;13.21;100.00;99363.63;2042493;29;20198;-80
2021/09/27 04:34:30;;;;;;;75.53;43.13;;;;;;;13.22;100.00;99362.50;2042817;29;20643;-80
2021/09/27 04:35:37;;;;;;;69.10;40.95;;;;;;;13.23;100.00;99362.22;2049093;28;20256;-79
2021/09/27 04:36:42;;;;;;;74.70;40.47;;;;;;;13.20;100.00;99359.31;2057917;28;20614;-79
2021/09/27 04:37:43;;;;;;;76.25;41.30;;;;;;;13.18;100.00;99364.19;2057671;28;20657;-79
2021/09/27 04:38:48;;;;;;;71.30;41.22;;;;;;;13.18;100.00;99370.31;2049085;29;20735;-79
2021/09/27 04:39:51;;;;;;;70.55;41.83;;;;;;;13.18;100.00;99364.19;2049008;29;20634;-79
2021/09/27 04:41:10;;;;;;;72.75;41.47;;;;;;;13.23;100.00;99372.13;2049201;28;20289;-80
2021/09/27 04:42:39;;;;;;;68.85;41.80;;;;;;;13.22;100.00;99375.91;2050613;29;20190;-79
2021/09/27 04:43:49;;;;;;;67.03;40.17;;;;;;;13.26;100.00;99371.50;2054531;28;20185;-80
2021/09/27 04:45:02;;;;;;;72.32;42.47;;;;;;;13.25;100.00;99381.44;2050572;29;20195;-79
2021/09/27 04:46:08;;;;;;;66.88;41.65;;;;;;;13.22;100.00;99382.06;2050531;29;20729;-80
2021/09/27 04:47:14;;;;;;;72.70;39.63;;;;;;;13.25;100.00;99381.44;2051581;28;20614;-79
2021/09/27 04:48:25;;;;;;;62.88;39.78;;;;;;;13.26;100.00;99377.66;2050592;29;20258;-80
2021/09/27 04:49:38;;;;;;;61.50;38.55;;;;;;;13.27;100.00;99378.44;2043840;29;20187;-79
2021/09/27 04:50:46;;;;;;;59.92;38.53;;;;;;;13.26;100.00;99383.03;2044135;29;20565;-79
2021/09/27 04:51:55;;;;;;;63.33;37.38;;;;;;;13.23;100.00;99383.63;2051658;28;20253;-79
2021/09/27 04:53:03;;;;;;;55.15;36.63;;;;;;;13.19;100.00;99385.34;2050472;29;20214;-80
2021/09/27 04:54:40;;;;;;;58.65;37.13;;;;;;;13.18;100.00;99380.25;2051815;28;20178;-80
2021/09/27 04:56:06;;;;;;;60.30;37.40;;;;;;;13.14;100.00;99390.00;2056875;28;20268;-79
2021/09/27 04:57:18;;;;;;;52.63;35.85;;;;;;;13.16;100.00;99387.81;2043928;29;20700;-80
2021/09/27 04:58:30;;;;;;;53.63;35.72;;;;;;;13.18;100.00;99380.25;2043903;29;20233;-79
2021/09/27 04:59:41;;;;;;;57.15;37.30;;;;;;;13.13;100.00;99383.06;2043847;29;20338;-79
2021/09/27 05:00:54;;;;;;;56.75;36.70;;;;;;;13.09;100.00;99377.50;2052060;28;20186;-79
2021/09/27 05:02:14;;;;;;;60.05;38.47;;;;;;;13.10;100.00;99383.66;2050463;29;20191;-80
2021/09/27 05:03:37;;;;;;;59.00;38.22;;;;;;;13.12;100.00;99387.63;2044927;29;20697;-80
2021/09/27 05:04:44;;;;;;;58.67;37.80;;;;;;;13.11;100.00;99386.03;2053677;28;20170;-80
2021/09/27 05:06:03;;;;;;;61.42;36.30;;;;;;;13.12;100.00;99384.13;2050475;29;20197;-79
2021/09/27 05:07:19;;;;;;;60.28;36.92;;;;;;;13.13;100.00;99394.56;2053104;28;20186;-80
2021/09/27 05:08:32;;;;;;;54.95;36.63;;;;;;;13.10;100.00;99387.13;2058995;28;20178;-79
2021/09/27 05:09:45;;;;;;;61.03;36.97;;;;;;;13.10;100.00;99384.44;2059110;28;20204;-80
2021/09/27 05:11:01;;;;;;;55.55;37.00;;;;;;;13.09;100.00;99387.44;2059208;28;20209;-80